createdAt,value
2022-10-12T00:00:13.860Z,4.37
2022-10-12T00:02:42.237Z,4.30
2022-10-12T00:05:12.912Z,4.47
2022-10-12T00:07:41.217Z,4.47
2022-10-12T00:10:09.800Z,4.10
2022-10-12T00:12:37.947Z,4.53
2022-10-12T00:15:06.527Z,4.20
2022-10-12T00:17:34.804Z,4.10
2022-10-12T00:20:03.197Z,5.70
2022-10-12T00:22:32.936Z,4.03
2022-10-12T00:25:01.095Z,4.90
2022-10-12T00:27:29.235Z,4.20
2022-10-12T00:29:57.369Z,4.03
2022-10-12T00:32:25.530Z,4.83
2022-10-12T00:34:53.716Z,4.47
2022-10-12T00:37:21.872Z,3.93
2022-10-12T00:39:51.367Z,4.20
2022-10-12T00:42:21.578Z,3.77
2022-10-12T00:44:50.308Z,3.83
2022-10-12T00:47:21.846Z,3.70
2022-10-12T00:49:52.720Z,3.67
2022-10-12T00:52:23.053Z,3.50
2022-10-12T00:54:53.055Z,3.40
2022-10-12T00:57:21.440Z,3.60
2022-10-12T00:59:52.011Z,4.00
2022-10-12T01:02:20.839Z,3.50
2022-10-12T01:04:48.991Z,3.57
2022-10-12T01:07:17.158Z,3.90
2022-10-12T01:09:45.455Z,3.47
2022-10-12T01:12:15.071Z,3.43
2022-10-12T01:14:43.345Z,3.50
2022-10-12T01:17:18.104Z,3.30
2022-10-12T01:20:10.376Z,3.27
2022-10-12T01:22:43.642Z,3.40
2022-10-12T01:25:17.438Z,3.47
2022-10-12T01:27:49.396Z,3.50
2022-10-12T01:30:23.139Z,2.70
2022-10-12T01:33:02.416Z,3.23
2022-10-12T01:35:33.754Z,2.90
2022-10-12T01:38:07.045Z,3.47
2022-10-12T01:40:37.256Z,2.83
2022-10-12T01:43:06.072Z,2.80
2022-10-12T01:45:35.604Z,3.00
2022-10-12T01:48:04.236Z,3.07
2022-10-12T01:50:35.879Z,2.80
2022-10-12T01:53:07.123Z,2.90
2022-10-12T01:55:38.658Z,2.97
2022-10-12T01:58:13.757Z,2.73
2022-10-12T02:00:45.359Z,3.63
2022-10-12T02:03:18.291Z,2.90
2022-10-12T02:05:50.120Z,2.87
2022-10-12T02:08:21.142Z,3.13
2022-10-12T02:10:52.640Z,3.20
2022-10-12T02:13:21.947Z,2.80
2022-10-12T02:15:52.643Z,2.80
2022-10-12T02:18:21.867Z,2.80
2022-10-12T02:20:52.883Z,2.80
2022-10-12T02:23:21.539Z,3.00
2022-10-12T02:25:50.983Z,2.80
2022-10-12T02:28:20.355Z,2.90
2022-10-12T02:30:50.445Z,2.83
2022-10-12T02:33:24.118Z,3.37
2022-10-12T02:35:53.787Z,2.60
2022-10-12T02:38:26.532Z,2.60
2022-10-12T02:40:57.195Z,2.73
2022-10-12T02:43:27.035Z,2.80
2022-10-12T02:45:55.521Z,2.67
2022-10-12T02:48:25.900Z,2.67
2022-10-12T02:50:55.895Z,3.20
2022-10-12T02:53:24.884Z,2.93
2022-10-12T02:55:53.931Z,2.73
2022-10-12T02:58:22.232Z,2.83
2022-10-12T03:00:50.384Z,3.10
2022-10-12T03:03:18.720Z,3.00
2022-10-12T03:05:48.276Z,4.27
2022-10-12T03:08:16.420Z,3.60
2022-10-12T03:10:44.568Z,2.80
2022-10-12T03:13:12.708Z,2.80
2022-10-12T03:15:40.969Z,3.03
2022-10-12T03:18:09.117Z,3.30
2022-10-12T03:20:37.266Z,2.70
2022-10-12T03:23:06.785Z,2.77
2022-10-12T03:25:34.932Z,2.77
2022-10-12T03:28:03.094Z,3.00
2022-10-12T03:30:31.309Z,3.10
2022-10-12T03:32:59.459Z,3.03
2022-10-12T03:35:27.628Z,3.03
2022-10-12T03:37:55.764Z,2.60
2022-10-12T03:40:25.289Z,2.80
2022-10-12T03:42:53.441Z,2.97
2022-10-12T03:45:21.597Z,2.97
2022-10-12T03:47:49.789Z,2.70
2022-10-12T03:50:18.060Z,2.83
2022-10-12T03:52:46.182Z,2.90
2022-10-12T03:55:14.399Z,2.80
2022-10-12T03:57:44.559Z,2.80
2022-10-12T04:00:13.273Z,2.97
2022-10-12T04:02:41.796Z,2.80
2022-10-12T04:05:10.372Z,2.40
2022-10-12T04:07:38.994Z,3.47
2022-10-12T04:10:07.947Z,3.00
2022-10-12T04:12:36.132Z,3.30
2022-10-12T04:15:05.930Z,3.07
2022-10-12T04:17:34.095Z,3.07
2022-10-12T04:20:02.246Z,2.60
2022-10-12T04:22:30.422Z,3.00
2022-10-12T04:24:58.552Z,2.90
2022-10-12T04:27:26.692Z,3.00
2022-10-12T04:29:54.874Z,2.53
2022-10-12T04:32:24.486Z,3.00
2022-10-12T04:34:52.625Z,2.83
2022-10-12T04:37:20.801Z,3.13
2022-10-12T04:39:48.953Z,3.53
2022-10-12T04:42:17.160Z,2.90
2022-10-12T04:44:45.323Z,2.87
2022-10-12T04:47:13.468Z,2.67
2022-10-12T04:49:42.962Z,2.87
2022-10-12T04:52:11.104Z,2.93
2022-10-12T04:54:39.235Z,2.90
2022-10-12T04:57:07.385Z,2.83
2022-10-12T04:59:35.527Z,2.90
2022-10-12T05:02:03.693Z,2.93
2022-10-12T05:04:31.879Z,3.03
2022-10-12T05:07:01.424Z,2.87
2022-10-12T05:09:29.569Z,3.07
2022-10-12T05:11:57.728Z,2.80
2022-10-12T05:14:25.918Z,2.73
2022-10-12T05:16:54.169Z,3.30
2022-10-12T05:19:22.313Z,3.20
2022-10-12T05:21:50.499Z,3.03
2022-10-12T05:24:19.979Z,3.10
2022-10-12T05:26:48.118Z,2.90
2022-10-12T05:29:16.263Z,3.10
2022-10-12T05:31:44.395Z,2.67
2022-10-12T05:34:12.564Z,3.40
2022-10-12T05:36:40.700Z,3.37
2022-10-12T05:39:08.827Z,3.10
2022-10-12T05:41:38.669Z,3.00
2022-10-12T05:44:07.186Z,3.00
2022-10-12T05:46:35.307Z,2.90
2022-10-12T05:49:03.666Z,2.67
2022-10-12T05:51:31.862Z,2.73
2022-10-12T05:53:59.984Z,2.90
2022-10-12T05:56:28.127Z,2.67
2022-10-12T05:58:57.625Z,2.50
2022-10-12T06:01:25.882Z,3.47
2022-10-12T06:03:54.742Z,2.60
2022-10-12T06:06:26.064Z,2.90
2022-10-12T06:08:54.263Z,2.43
2022-10-12T06:11:22.444Z,2.67
2022-10-12T06:13:50.619Z,2.87
2022-10-12T06:16:20.355Z,3.30
2022-10-12T06:18:48.529Z,2.70
2022-10-12T06:24:04.894Z,2.60
2022-10-12T06:26:33.064Z,3.50
2022-10-12T06:29:01.241Z,3.20
2022-10-12T06:31:32.274Z,2.83
2022-10-12T06:34:00.465Z,3.07
2022-10-12T06:36:28.651Z,3.00
2022-10-12T06:38:56.803Z,3.03
2022-10-12T06:41:24.992Z,3.40
2022-10-12T06:43:53.276Z,3.10
2022-10-12T06:46:21.426Z,3.20
2022-10-12T06:48:50.919Z,3.10
2022-10-12T06:51:19.221Z,2.77
2022-10-12T06:53:47.384Z,3.10
2022-10-12T06:56:15.615Z,2.73
2022-10-12T06:58:43.752Z,2.67
2022-10-12T07:01:11.897Z,2.73
2022-10-12T07:03:40.356Z,2.10
2022-10-12T07:06:11.663Z,3.17
2022-10-12T07:08:41.008Z,2.63
2022-10-12T07:11:11.356Z,2.70
2022-10-12T07:13:39.522Z,2.30
2022-10-12T07:16:07.825Z,2.63
2022-10-12T07:18:36.056Z,2.67
2022-10-12T07:21:04.270Z,2.60
2022-10-12T07:23:34.358Z,2.70
2022-10-12T07:26:02.819Z,2.60
2022-10-12T07:28:31.034Z,3.07
2022-10-12T07:31:02.316Z,2.83
2022-10-12T07:33:33.964Z,2.50
2022-10-12T07:36:13.950Z,3.10
2022-10-12T07:38:45.626Z,2.67
2022-10-12T07:41:14.475Z,2.87
2022-10-12T07:43:43.054Z,2.57
2022-10-12T07:46:11.302Z,4.43
2022-10-12T07:48:44.505Z,8.60
2022-10-12T07:51:17.252Z,3.33
2022-10-12T07:53:46.814Z,15.67
2022-10-12T07:56:18.107Z,7.00
2022-10-12T07:58:49.842Z,3.53
2022-10-12T08:01:18.404Z,2.73
2022-10-12T08:03:46.745Z,2.47
2022-10-12T08:06:15.760Z,2.53
2022-10-12T08:08:44.220Z,2.07
2022-10-12T08:11:14.173Z,1.77
2022-10-12T08:13:42.392Z,2.17
2022-10-12T08:16:12.396Z,1.83
2022-10-12T08:18:40.845Z,1.43
2022-10-12T08:21:09.726Z,2.13
2022-10-12T08:23:38.330Z,1.97
2022-10-12T08:26:07.019Z,1.73
2022-10-12T08:28:37.476Z,1.80
2022-10-12T08:31:07.806Z,2.03
2022-10-12T08:33:35.963Z,4.53
2022-10-12T08:36:04.651Z,3.00
2022-10-12T08:38:32.805Z,2.13
2022-10-12T08:41:06.013Z,2.00
2022-10-12T08:43:37.660Z,2.03
2022-10-12T08:46:07.764Z,1.70
2022-10-12T08:48:41.880Z,2.77
2022-10-12T08:51:12.780Z,2.90
2022-10-12T08:53:49.808Z,2.00
2022-10-12T08:56:18.808Z,1.73
2022-10-12T08:58:47.632Z,1.87
2022-10-12T09:01:27.298Z,1.63
2022-10-12T09:04:02.068Z,2.17
2022-10-12T09:06:31.895Z,1.80
2022-10-12T09:09:04.568Z,1.87
2022-10-12T09:11:46.607Z,2.33
2022-10-12T09:14:18.918Z,2.93
2022-10-12T09:16:50.334Z,3.20
2022-10-12T09:19:20.127Z,2.40
2022-10-12T09:21:49.335Z,1.90
2022-10-12T09:24:19.806Z,1.90
2022-10-12T09:26:48.515Z,2.30
2022-10-12T09:29:23.961Z,2.20
2022-10-12T09:32:04.438Z,2.27
2022-10-12T09:34:33.076Z,2.60
2022-10-12T09:37:03.623Z,2.60
2022-10-12T09:39:32.711Z,2.40
2022-10-12T09:42:00.895Z,2.97
2022-10-12T09:44:31.340Z,3.17
2022-10-12T09:47:02.029Z,3.00
2022-10-12T09:49:43.403Z,3.10
2022-10-12T09:52:12.125Z,3.50
2022-10-12T09:54:41.369Z,2.90
2022-10-12T09:57:09.702Z,3.10
2022-10-12T09:59:39.009Z,3.20
2022-10-12T10:02:15.417Z,2.73
2022-10-12T10:04:44.312Z,2.93
2022-10-12T10:07:21.102Z,3.00
2022-10-12T10:09:49.480Z,3.60
2022-10-12T10:12:25.046Z,3.73
2022-10-12T10:14:53.957Z,3.40
2022-10-12T10:17:27.852Z,3.93
2022-10-12T10:19:56.664Z,3.50
2022-10-12T10:22:25.477Z,3.43
2022-10-12T10:24:58.993Z,3.53
2022-10-12T10:27:30.464Z,3.53
2022-10-12T10:30:25.426Z,3.30
2022-10-12T10:33:08.869Z,3.50
2022-10-12T10:35:37.253Z,4.13
2022-10-12T10:38:07.355Z,3.37
2022-10-12T10:40:36.226Z,3.67
2022-10-12T10:43:05.319Z,3.57
2022-10-12T10:45:35.019Z,4.67
2022-10-12T10:48:10.547Z,3.80
2022-10-12T10:50:39.988Z,4.17
2022-10-12T10:53:09.753Z,4.27
2022-10-12T10:55:44.443Z,4.17
2022-10-12T10:58:18.392Z,3.90
2022-10-12T11:00:48.161Z,4.10
2022-10-12T11:03:22.080Z,4.13
2022-10-12T11:05:52.803Z,4.53
2022-10-12T11:08:22.448Z,4.73
2022-10-12T11:10:52.407Z,4.50
2022-10-12T11:13:22.839Z,4.20
2022-10-12T11:15:52.805Z,4.00
2022-10-12T11:18:25.296Z,4.13
2022-10-12T11:20:54.901Z,4.97
2022-10-12T11:23:28.861Z,4.40
2022-10-12T11:26:07.424Z,3.93
2022-10-12T11:28:37.533Z,4.43
2022-10-12T11:31:07.008Z,4.30
2022-10-12T11:33:38.439Z,4.57
2022-10-12T11:36:08.564Z,4.33
2022-10-12T11:38:40.028Z,4.63
2022-10-12T11:41:33.943Z,6.17
2022-10-12T11:44:02.529Z,4.70
2022-10-12T11:46:33.980Z,4.93
2022-10-12T11:49:07.253Z,4.17
2022-10-12T11:51:35.990Z,4.43
2022-10-12T11:54:06.845Z,4.00
2022-10-12T11:56:36.698Z,4.20
2022-10-12T11:59:07.385Z,4.37
2022-10-12T12:01:47.370Z,4.50
2022-10-12T12:07:27.900Z,3.90
2022-10-12T12:09:56.051Z,3.43
2022-10-12T12:12:24.609Z,3.43
2022-10-12T12:15:10.397Z,3.87
2022-10-12T12:17:38.755Z,3.60
2022-10-12T12:20:21.834Z,3.60
2022-10-12T12:22:54.551Z,3.40
2022-10-12T12:25:28.433Z,3.60
2022-10-12T12:27:57.806Z,3.43
2022-10-12T12:30:29.516Z,4.97
2022-10-12T12:32:58.709Z,4.37
2022-10-12T12:35:29.779Z,4.70
2022-10-12T12:38:24.772Z,3.73
2022-10-12T12:40:58.369Z,3.83
2022-10-12T12:43:52.938Z,3.53
2022-10-12T12:46:21.708Z,3.30
2022-10-12T12:48:59.528Z,3.77
2022-10-12T12:51:35.241Z,3.50
2022-10-12T12:54:04.857Z,3.17
2022-10-12T12:56:37.551Z,3.07
2022-10-12T12:59:13.796Z,3.37
2022-10-12T13:01:51.725Z,3.50
2022-10-12T13:04:37.975Z,3.50
2022-10-12T13:07:25.025Z,2.87
2022-10-12T13:10:04.247Z,3.23
2022-10-12T13:12:45.118Z,3.70
2022-10-12T13:15:20.188Z,3.00
2022-10-12T13:18:00.185Z,3.90
2022-10-12T13:20:29.277Z,3.70
2022-10-12T13:22:57.943Z,3.97
2022-10-12T13:25:29.207Z,3.70
2022-10-12T13:27:59.656Z,4.07
2022-10-12T13:30:34.384Z,3.80
2022-10-12T13:33:04.922Z,3.70
2022-10-12T13:35:34.989Z,3.40
2022-10-12T13:38:04.525Z,3.47
2022-10-12T13:40:34.363Z,4.10
2022-10-12T13:43:23.612Z,3.70
2022-10-12T13:45:53.106Z,3.77
2022-10-12T13:48:39.959Z,3.57
2022-10-12T13:51:22.253Z,4.07
2022-10-12T13:53:50.387Z,3.80
2022-10-12T13:56:20.080Z,3.60
2022-10-12T13:58:48.313Z,3.50
2022-10-12T14:01:17.913Z,3.90
2022-10-12T14:03:46.401Z,3.93
2022-10-12T14:06:28.471Z,3.27
2022-10-12T14:08:58.143Z,3.03
2022-10-12T14:11:27.115Z,3.27
2022-10-12T14:13:55.677Z,3.70
2022-10-12T14:16:25.191Z,3.43
2022-10-12T14:18:53.336Z,3.40
2022-10-12T14:21:23.893Z,3.33
2022-10-12T14:23:53.147Z,3.60
2022-10-12T14:26:24.201Z,3.70
2022-10-12T14:28:52.418Z,3.67
2022-10-12T14:31:20.626Z,3.53
2022-10-12T14:33:50.132Z,3.37
2022-10-12T14:36:27.017Z,3.40
2022-10-12T14:38:59.041Z,3.97
2022-10-12T14:41:33.671Z,3.47
2022-10-12T14:44:10.453Z,3.13
2022-10-12T14:46:39.288Z,4.03
2022-10-12T14:49:13.512Z,4.23
2022-10-12T14:51:41.725Z,4.27
2022-10-12T14:54:11.255Z,5.00
2022-10-12T14:56:39.460Z,5.10
2022-10-12T14:59:07.632Z,4.90
2022-10-12T15:01:40.841Z,4.53
2022-10-12T15:04:13.759Z,4.17
2022-10-12T15:06:43.361Z,4.20
2022-10-12T15:09:13.036Z,4.30
2022-10-12T15:11:41.156Z,3.97
2022-10-12T15:14:10.599Z,4.73
2022-10-12T15:16:38.956Z,4.30
2022-10-12T15:19:07.085Z,4.20
2022-10-12T15:21:36.567Z,4.53
2022-10-12T15:24:04.748Z,3.80
2022-10-12T15:26:32.985Z,4.73
2022-10-12T15:29:01.142Z,4.33
2022-10-12T15:31:29.363Z,4.30
2022-10-12T15:33:57.574Z,4.77
2022-10-12T15:36:25.827Z,4.43
2022-10-12T15:38:55.374Z,4.60
2022-10-12T15:41:25.881Z,5.20
2022-10-12T15:43:54.457Z,5.53
2022-10-12T15:46:22.948Z,4.40
2022-10-12T15:48:51.135Z,4.63
2022-10-12T15:51:20.728Z,4.47
2022-10-12T15:53:49.170Z,4.70
2022-10-12T15:56:19.661Z,4.27
2022-10-12T15:58:48.060Z,4.67
2022-10-12T16:01:16.992Z,4.10
2022-10-12T16:03:45.524Z,4.47
2022-10-12T16:06:14.011Z,4.53
2022-10-12T16:08:42.231Z,4.80
2022-10-12T16:11:12.648Z,5.20
2022-10-12T16:13:47.015Z,5.63
2022-10-12T16:16:18.380Z,5.40
2022-10-12T16:18:46.892Z,5.27
2022-10-12T16:21:15.156Z,5.10
2022-10-12T16:23:43.344Z,5.40
2022-10-12T16:26:13.579Z,5.87
2022-10-12T16:28:43.331Z,5.90
2022-10-12T16:31:12.120Z,4.97
2022-10-12T16:33:41.370Z,5.07
2022-10-12T16:36:11.046Z,5.23
2022-10-12T16:38:39.225Z,5.23
2022-10-12T16:41:11.080Z,5.87
2022-10-12T16:43:39.231Z,5.53
2022-10-12T16:46:09.633Z,5.03
2022-10-12T16:48:38.588Z,4.90
2022-10-12T16:51:10.401Z,5.03
2022-10-12T16:53:38.616Z,5.13
2022-10-12T16:56:07.073Z,4.90
2022-10-12T16:58:35.443Z,5.30
2022-10-12T17:01:10.745Z,5.13
2022-10-12T17:03:38.996Z,5.17
2022-10-12T17:06:07.501Z,5.30
2022-10-12T17:08:38.769Z,5.77
2022-10-12T17:11:07.577Z,4.97
2022-10-12T17:13:37.564Z,4.87
2022-10-12T17:16:26.287Z,6.10
2022-10-12T17:18:59.467Z,6.10
2022-10-12T17:21:28.002Z,6.43
2022-10-12T17:23:57.536Z,6.73
2022-10-12T17:26:25.782Z,7.17
2022-10-12T17:28:54.011Z,6.17
2022-10-12T17:31:22.289Z,6.03
2022-10-12T17:33:54.756Z,6.40
2022-10-12T17:36:28.199Z,5.43
2022-10-12T17:38:57.329Z,5.27
2022-10-12T17:41:25.619Z,5.20
2022-10-12T17:43:53.808Z,5.30
2022-10-12T17:46:22.910Z,4.70
2022-10-12T17:48:51.495Z,5.17
2022-10-12T17:51:19.774Z,5.40
2022-10-12T17:53:49.620Z,5.03
2022-10-12T17:56:17.910Z,5.87
2022-10-12T17:58:46.118Z,5.40
2022-10-12T18:01:15.291Z,5.00
2022-10-12T18:03:46.376Z,4.77
2022-10-12T18:06:15.678Z,4.80
2022-10-12T18:08:44.435Z,4.70
2022-10-12T18:11:14.030Z,4.57
2022-10-12T18:13:42.183Z,5.13
2022-10-12T18:16:11.036Z,4.90
2022-10-12T18:18:39.307Z,5.03
2022-10-12T18:21:07.958Z,5.17
2022-10-12T18:23:36.233Z,5.00
2022-10-12T18:26:05.246Z,5.30
2022-10-12T18:28:35.238Z,5.50
2022-10-12T18:31:03.720Z,5.30
2022-10-12T18:33:32.133Z,5.77
2022-10-12T18:36:03.383Z,5.87
2022-10-12T18:38:31.594Z,5.70
2022-10-12T18:41:03.945Z,5.50
2022-10-12T18:43:32.117Z,5.97
2022-10-12T18:46:01.629Z,5.07
2022-10-12T18:48:29.791Z,5.73
2022-10-12T18:50:58.047Z,5.30
2022-10-12T18:53:28.078Z,4.97
2022-10-12T18:55:56.213Z,5.10
2022-10-12T18:58:24.455Z,4.93
2022-10-12T19:00:52.614Z,6.57
2022-10-12T19:03:22.460Z,6.50
2022-10-12T19:05:50.594Z,5.83
2022-10-12T19:08:18.820Z,6.53
2022-10-12T19:10:47.097Z,5.80
2022-10-12T19:13:15.296Z,6.20
2022-10-12T19:15:43.437Z,6.13
2022-10-12T19:18:11.567Z,5.40
2022-10-12T19:20:41.254Z,5.93
2022-10-12T19:23:09.396Z,6.13
2022-10-12T19:25:39.795Z,5.70
2022-10-12T19:28:08.001Z,5.43
2022-10-12T19:30:38.736Z,4.90
2022-10-12T19:33:07.265Z,5.17
2022-10-12T19:35:37.934Z,5.70
2022-10-12T19:38:07.455Z,5.33
2022-10-12T19:40:37.526Z,6.03
2022-10-12T19:43:06.774Z,5.53
2022-10-12T19:45:39.781Z,5.93
2022-10-12T19:48:09.112Z,5.53
2022-10-12T19:50:38.033Z,5.20
2022-10-12T19:53:07.633Z,5.77
2022-10-12T19:55:38.950Z,5.80
2022-10-12T19:58:07.580Z,4.63
2022-10-12T20:00:36.489Z,5.20
2022-10-12T20:03:05.005Z,5.23
2022-10-12T20:05:34.244Z,5.50
2022-10-12T20:08:02.432Z,5.40
2022-10-12T20:10:32.096Z,5.53
2022-10-12T20:13:00.714Z,5.53
2022-10-12T20:15:28.880Z,5.13
2022-10-12T20:17:57.109Z,6.57
2022-10-12T20:20:25.280Z,6.07
2022-10-12T20:22:53.468Z,5.70
2022-10-12T20:25:21.641Z,5.53
2022-10-12T20:27:51.262Z,5.63
2022-10-12T20:30:19.420Z,5.90
2022-10-12T20:32:49.741Z,5.93
2022-10-12T20:35:21.368Z,6.03
2022-10-12T20:37:49.515Z,5.63
2022-10-12T20:40:17.908Z,5.37
2022-10-12T20:42:46.383Z,5.63
2022-10-12T20:45:16.015Z,5.27
2022-10-12T20:47:44.600Z,5.90
2022-10-12T20:50:13.683Z,5.93
2022-10-12T20:52:43.196Z,6.17
2022-10-12T20:55:11.744Z,6.37
2022-10-12T20:57:40.109Z,6.30
2022-10-12T21:00:08.796Z,6.17
2022-10-12T21:02:39.085Z,5.90
2022-10-12T21:05:07.748Z,5.97
2022-10-12T21:07:36.330Z,6.17
2022-10-12T21:10:04.617Z,6.57
2022-10-12T21:12:32.828Z,6.60
2022-10-12T21:15:01.001Z,6.10
2022-10-12T21:17:29.159Z,6.57
2022-10-12T21:19:58.777Z,6.83
2022-10-12T21:22:26.988Z,6.20
2022-10-12T21:24:55.152Z,6.80
2022-10-12T21:27:23.294Z,6.70
2022-10-12T21:29:51.493Z,7.23
2022-10-12T21:32:19.957Z,7.30
2022-10-12T21:34:49.713Z,7.20
2022-10-12T21:37:19.221Z,7.60
2022-10-12T21:39:50.774Z,7.40
2022-10-12T21:42:22.414Z,6.53
2022-10-12T21:44:50.763Z,6.57
2022-10-12T21:47:18.918Z,6.20
2022-10-12T21:49:47.076Z,6.90
2022-10-12T21:52:15.351Z,6.53
2022-10-12T21:54:44.938Z,6.67
2022-10-12T21:57:13.077Z,6.30
2022-10-12T21:59:41.266Z,6.00
2022-10-12T22:02:09.448Z,6.30
2022-10-12T22:04:37.589Z,6.17
2022-10-12T22:07:05.727Z,6.43
2022-10-12T22:09:33.904Z,5.73
2022-10-12T22:12:03.384Z,6.43
2022-10-12T22:14:31.551Z,6.50
2022-10-12T22:16:59.707Z,6.33
2022-10-12T22:19:27.864Z,5.60
2022-10-12T22:21:56.067Z,6.60
2022-10-12T22:24:24.223Z,6.03
2022-10-12T22:26:52.901Z,6.67
2022-10-12T22:29:22.401Z,6.30
2022-10-12T22:31:50.567Z,6.00
2022-10-12T22:34:18.705Z,7.07
2022-10-12T22:36:46.889Z,6.63
2022-10-12T22:39:15.883Z,6.27
2022-10-12T22:41:43.999Z,6.13
2022-10-12T22:44:12.221Z,6.70
2022-10-12T22:46:41.773Z,6.67
2022-10-12T22:49:09.944Z,6.20
2022-10-12T22:51:39.227Z,6.23
2022-10-12T22:54:08.039Z,6.47
2022-10-12T22:56:36.216Z,6.33
2022-10-12T22:59:06.791Z,6.47
2022-10-12T23:01:35.146Z,6.63
2022-10-12T23:04:04.644Z,6.60
2022-10-12T23:06:32.800Z,7.17
2022-10-12T23:09:00.930Z,6.60
2022-10-12T23:11:30.208Z,6.57
2022-10-12T23:13:59.154Z,6.07
2022-10-12T23:16:28.288Z,6.53
2022-10-12T23:18:59.298Z,6.23
2022-10-12T23:21:29.687Z,6.80
2022-10-12T23:23:58.095Z,6.13
2022-10-12T23:26:26.837Z,6.53
2022-10-12T23:28:55.407Z,6.67
2022-10-12T23:31:25.098Z,5.93
2022-10-12T23:33:56.000Z,6.60
2022-10-12T23:36:24.145Z,6.10
2022-10-12T23:38:53.963Z,6.60
2022-10-12T23:41:22.118Z,5.43
2022-10-12T23:43:50.290Z,5.77
2022-10-12T23:46:18.447Z,6.00
2022-10-12T23:48:46.597Z,6.47
2022-10-12T23:51:14.746Z,6.37
2022-10-12T23:53:42.898Z,6.30
2022-10-12T23:56:12.401Z,6.17
2022-10-12T23:58:40.634Z,6.00
